Wetterdaten: Samstag, 18.02.2017
Datum Zeit Temp. A. Feuchte A. Luftdruck Regen Wind Richtung Richtung Sonnenschein UV Solar Windben
18.02.2017 00:00 5,7 C 93 % 1025,9 hPa 0,0 mm 3,2 km/h (1 Bft) W-NW 292 0 min 0 UV-I 0 W/m 11,3 km/h (2 Bft)
18.02.2017 00:10 5,6 C 93 % 1026,0 hPa 0,0 mm 3,2 km/h (1 Bft) W-NW 292 0 min 0 UV-I 0 W/m 9,7 km/h (2 Bft)
18.02.2017 00:20 5,4 C 93 % 1026,1 hPa 0,0 mm 1,6 km/h (1 Bft) NW 315 0 min 0 UV-I 0 W/m 9,7 km/h (2 Bft)
18.02.2017 00:30 5,3 C 93 % 1026,1 hPa 0,0 mm 0,0 km/h (0 Bft) NW 315 0 min 0 UV-I 0 W/m 8,0 km/h (2 Bft)
18.02.2017 00:40 5,2 C 93 % 1026,0 hPa 0,0 mm 0,0 km/h (0 Bft) NW 315 0 min 0 UV-I 0 W/m 8,0 km/h (2 Bft)
18.02.2017 00:50 5,2 C 93 % 1026,0 hPa 0,0 mm 0,0 km/h (0 Bft) NW 315 0 min 0 UV-I 0 W/m 6,4 km/h (2 Bft)
18.02.2017 01:00 5,1 C 93 % 1026,1 hPa 0,0 mm 1,6 km/h (1 Bft) NW 315 0 min 0 UV-I 0 W/m 9,7 km/h (2 Bft)
18.02.2017 01:10 5,1 C 98 % 1026,1 hPa 0,0 mm 0,0 km/h (0 Bft) NW 315 0 min 0 UV-I 0 W/m 4,8 km/h (1 Bft)
18.02.2017 01:20 4,9 C 92 % 1026,1 hPa 0,0 mm 0,0 km/h (0 Bft) N 0 0 min 0 UV-I 0 W/m 0,0 km/h (0 Bft)
18.02.2017 01:30 4,9 C 92 % 1026,1 hPa 0,0 mm 0,0 km/h (0 Bft) NW 315 0 min 0 UV-I 0 W/m 3,2 km/h (1 Bft)
18.02.2017 01:40 4,9 C 92 % 1026,1 hPa 0,0 mm 0,0 km/h (0 Bft) NW 315 0 min 0 UV-I 0 W/m 3,2 km/h (1 Bft)
18.02.2017 01:50 4,8 C 92 % 1026,1 hPa 0,0 mm 0,0 km/h (0 Bft) N 0 0 min 0 UV-I 0 W/m 0,0 km/h (0 Bft)
18.02.2017 02:00 4,8 C 92 % 1026,1 hPa 0,0 mm 0,0 km/h (0 Bft) N 0 0 min 0 UV-I 0 W/m 0,0 km/h (0 Bft)
18.02.2017 02:10 4,8 C 92 % 1026,1 hPa 0,0 mm 0,0 km/h (0 Bft) N 0 0 min 0 UV-I 0 W/m 0,0 km/h (0 Bft)
18.02.2017 02:20 4,8 C 92 % 1026,1 hPa 0,0 mm 0,0 km/h (0 Bft) N 0 0 min 0 UV-I 0 W/m 0,0 km/h (0 Bft)
18.02.2017 02:30 4,8 C 93 % 1026,1 hPa 0,0 mm 0,0 km/h (0 Bft) N 0 0 min 0 UV-I 0 W/m 0,0 km/h (0 Bft)
18.02.2017 02:40 4,8 C 92 % 1026,1 hPa 0,0 mm 0,0 km/h (0 Bft) NW 315 0 min 0 UV-I 0 W/m 1,6 km/h (1 Bft)
18.02.2017 02:50 4,8 C 92 % 1026,1 hPa 0,0 mm 0,0 km/h (0 Bft) N 0 0 min 0 UV-I 0 W/m 0,0 km/h (0 Bft)
18.02.2017 03:00 4,8 C 92 % 1026,0 hPa 0,0 mm 1,6 km/h (1 Bft) NW 315 0 min 0 UV-I 0 W/m 9,7 km/h (2 Bft)
18.02.2017 03:10 4,9 C 92 % 1026,0 hPa 0,0 mm 0,0 km/h (0 Bft) W-NW 292 0 min 0 UV-I 0 W/m 6,4 km/h (2 Bft)
18.02.2017 03:20 4,9 C 92 % 1026,0 hPa 0,0 mm 0,0 km/h (0 Bft) W-NW 292 0 min 0 UV-I 0 W/m 4,8 km/h (1 Bft)
18.02.2017 03:30 4,9 C 92 % 1026,0 hPa 0,0 mm 0,0 km/h (0 Bft) N 0 0 min 0 UV-I 0 W/m 0,0 km/h (0 Bft)
18.02.2017 03:40 4,9 C 92 % 1026,0 hPa 0,0 mm 0,0 km/h (0 Bft) W-NW 292 0 min 0 UV-I 0 W/m 4,8 km/h (1 Bft)
18.02.2017 03:50 4,9 C 92 % 1026,0 hPa 0,0 mm 0,0 km/h (0 Bft) N 0 0 min 0 UV-I 0 W/m 0,0 km/h (0 Bft)
18.02.2017 04:00 4,9 C 92 % 1025,9 hPa 0,0 mm 0,0 km/h (0 Bft) N 0 0 min 0 UV-I 0 W/m 0,0 km/h (0 Bft)
18.02.2017 04:10 4,9 C 92 % 1025,8 hPa 0,0 mm 0,0 km/h (0 Bft) N 0 0 min 0 UV-I 0 W/m 0,0 km/h (0 Bft)
18.02.2017 04:20 4,9 C 92 % 1025,8 hPa 0,0 mm 0,0 km/h (0 Bft) N 0 0 min 0 UV-I 0 W/m 0,0 km/h (0 Bft)
18.02.2017 04:30 4,9 C 92 % 1025,8 hPa 0,0 mm 0,0 km/h (0 Bft) W-NW 292 0 min 0 UV-I 0 W/m 3,2 km/h (1 Bft)
18.02.2017 04:40 4,9 C 92 % 1025,9 hPa 0,0 mm 0,0 km/h (0 Bft) W-NW 292 0 min 0 UV-I 0 W/m 4,8 km/h (1 Bft)
18.02.2017 04:50 4,9 C 92 % 1025,8 hPa 0,0 mm 0,0 km/h (0 Bft) W-NW 292 0 min 0 UV-I 0 W/m 4,8 km/h (1 Bft)
18.02.2017 05:00 4,9 C 93 % 1025,8 hPa 0,0 mm 0,0 km/h (0 Bft) W-NW 292 0 min 0 UV-I 0 W/m 3,2 km/h (1 Bft)
18.02.2017 05:10 4,8 C 93 % 1025,9 hPa 0,0 mm 0,0 km/h (0 Bft) N 0 0 min 0 UV-I 0 W/m 0,0 km/h (0 Bft)
18.02.2017 05:20 4,8 C 93 % 1026,0 hPa 0,0 mm 0,0 km/h (0 Bft) N 0 0 min 0 UV-I 0 W/m 0,0 km/h (0 Bft)
18.02.2017 05:30 4,8 C 93 % 1026,0 hPa 0,0 mm 0,0 km/h (0 Bft) W-NW 292 0 min 0 UV-I 0 W/m 3,2 km/h (1 Bft)
18.02.2017 05:40 4,8 C 93 % 1026,1 hPa 0,0 mm 0,0 km/h (0 Bft) W-NW 292 0 min 0 UV-I 0 W/m 4,8 km/h (1 Bft)
18.02.2017 05:50 4,8 C 93 % 1026,1 hPa 0,0 mm 0,0 km/h (0 Bft) N 0 0 min 0 UV-I 0 W/m 0,0 km/h (0 Bft)
18.02.2017 06:00 4,8 C 93 % 1026,1 hPa 0,0 mm 0,0 km/h (0 Bft) N 0 0 min 0 UV-I 0 W/m 0,0 km/h (0 Bft)
18.02.2017 06:10 4,8 C 93 % 1026,1 hPa 0,0 mm 0,0 km/h (0 Bft) N 0 0 min 0 UV-I 0 W/m 0,0 km/h (0 Bft)
18.02.2017 06:20 4,8 C 93 % 1026,1 hPa 0,0 mm 0,0 km/h (0 Bft) N 0 0 min 0 UV-I 0 W/m 0,0 km/h (0 Bft)
18.02.2017 06:30 4,8 C 93 % 1026,2 hPa 0,0 mm 0,0 km/h (0 Bft) N 0 0 min 0 UV-I 0 W/m 0,0 km/h (0 Bft)
18.02.2017 06:40 4,8 C 93 % 1026,1 hPa 0,0 mm 0,0 km/h (0 Bft) N 0 0 min 0 UV-I 0 W/m 0,0 km/h (0 Bft)
18.02.2017 06:50 4,8 C 93 % 1026,1 hPa 0,0 mm 0,0 km/h (0 Bft) N 0 0 min 0 UV-I 0 W/m 0,0 km/h (0 Bft)
18.02.2017 07:00 4,7 C 93 % 1026,1 hPa 0,0 mm 0,0 km/h (0 Bft) N 0 0 min 0 UV-I 0 W/m 0,0 km/h (0 Bft)
18.02.2017 07:10 4,7 C 93 % 1026,2 hPa 0,0 mm 0,0 km/h (0 Bft) N 0 0 min 0 UV-I 0 W/m 0,0 km/h (0 Bft)
18.02.2017 07:20 4,7 C 93 % 1026,2 hPa 0,0 mm 0,0 km/h (0 Bft) N 0 0 min 0 UV-I 0 W/m 0,0 km/h (0 Bft)
18.02.2017 07:30 4,7 C 93 % 1026,3 hPa 0,0 mm 0,0 km/h (0 Bft) N 0 0 min 0 UV-I 0 W/m 0,0 km/h (0 Bft)
18.02.2017 07:40 4,7 C 93 % 1026,6 hPa 0,0 mm 0,0 km/h (0 Bft) N 0 0 min 0 UV-I 0 W/m 0,0 km/h (0 Bft)
18.02.2017 07:50 4,7 C 93 % 1026,6 hPa 0,0 mm 0,0 km/h (0 Bft) N 0 0 min 0 UV-I 0 W/m 0,0 km/h (0 Bft)
18.02.2017 08:00 4,7 C 93 % 1026,6 hPa 0,0 mm 0,0 km/h (0 Bft) W-NW 292 0 min 0 UV-I 0 W/m 1,6 km/h (1 Bft)
18.02.2017 08:10 4,7 C 93 % 1026,6 hPa 0,0 mm 0,0 km/h (0 Bft) N 0 0 min 0 UV-I 5 W/m 0,0 km/h (0 Bft)
18.02.2017 08:20 4,7 C 93 % 1026,6 hPa 0,0 mm 0,0 km/h (0 Bft) N 0 0 min 0 UV-I 11 W/m 0,0 km/h (0 Bft)
18.02.2017 08:30 4,7 C 93 % 1026,7 hPa 0,0 mm 0,0 km/h (0 Bft) N 0 0 min 0 UV-I 12 W/m 0,0 km/h (0 Bft)
18.02.2017 08:40 4,7 C 93 % 1026,7 hPa 0,0 mm 0,0 km/h (0 Bft) N 0 0 min 0 UV-I 16 W/m 0,0 km/h (0 Bft)
18.02.2017 08:50 4,7 C 93 % 1026,8 hPa 0,0 mm 0,0 km/h (0 Bft) N 0 0 min 0 UV-I 21 W/m 0,0 km/h (0 Bft)
18.02.2017 09:00 4,7 C 93 % 1026,8 hPa 0,0 mm 0,0 km/h (0 Bft) N 0 0 min 0 UV-I 28 W/m 0,0 km/h (0 Bft)
18.02.2017 09:10 4,8 C 93 % 1026,7 hPa 0,0 mm 0,0 km/h (0 Bft) N 0 0 min 0 UV-I 37 W/m 0,0 km/h (0 Bft)
18.02.2017 09:20 4,8 C 93 % 1026,8 hPa 0,0 mm 0,0 km/h (0 Bft) N 0 0 min 0 UV-I 37 W/m 0,0 km/h (0 Bft)
18.02.2017 09:30 4,8 C 93 % 1026,9 hPa 0,0 mm 0,0 km/h (0 Bft) N 0 0 min 0 UV-I 42 W/m 0,0 km/h (0 Bft)
18.02.2017 09:40 4,9 C 93 % 1026,8 hPa 0,0 mm 0,0 km/h (0 Bft) W-NW 292 0 min 0 UV-I 44 W/m 4,8 km/h (1 Bft)
18.02.2017 09:50 4,9 C 93 % 1026,9 hPa 0,0 mm 0,0 km/h (0 Bft) W-NW 292 0 min 0 UV-I 53 W/m 3,2 km/h (1 Bft)
18.02.2017 10:00 4,9 C 93 % 1026,9 hPa 0,0 mm 0,0 km/h (0 Bft) W-NW 292 0 min 1 UV-I 76 W/m 8,0 km/h (2 Bft)
18.02.2017 10:10 5,0 C 93 % 1026,9 hPa 0,0 mm 0,0 km/h (0 Bft) N 0 0 min 1 UV-I 95 W/m 0,0 km/h (0 Bft)
18.02.2017 10:20 5,1 C 93 % 1027,0 hPa 0,0 mm 0,0 km/h (0 Bft) N 0 0 min 1 UV-I 130 W/m 0,0 km/h (0 Bft)
18.02.2017 10:30 5,1 C 93 % 1027,0 hPa 0,0 mm 0,0 km/h (0 Bft) W-NW 292 0 min 1 UV-I 132 W/m 3,2 km/h (1 Bft)
18.02.2017 10:40 5,2 C 93 % 1027,0 hPa 0,0 mm 0,0 km/h (0 Bft) W-NW 292 0 min 1 UV-I 128 W/m 4,8 km/h (1 Bft)
18.02.2017 10:50 5,3 C 93 % 1027,0 hPa 0,0 mm 0,0 km/h (0 Bft) N 0 0 min 1 UV-I 176 W/m 0,0 km/h (0 Bft)
18.02.2017 11:00 5,4 C 93 % 1027,0 hPa 0,0 mm 0,0 km/h (0 Bft) N 0 0 min 1 UV-I 195 W/m 0,0 km/h (0 Bft)
18.02.2017 11:10 5,7 C 93 % 1027,0 hPa 0,0 mm 0,0 km/h (0 Bft) N 0 10 min 1 UV-I 243 W/m 0,0 km/h (0 Bft)
18.02.2017 11:20 5,8 C 93 % 1027,0 hPa 0,0 mm 0,0 km/h (0 Bft) W-NW 292 10 min 1 UV-I 287 W/m 4,8 km/h (1 Bft)
18.02.2017 11:30 6,1 C 92 % 1027,0 hPa 0,0 mm 0,0 km/h (0 Bft) W-NW 292 10 min 1 UV-I 250 W/m 3,2 km/h (1 Bft)
18.02.2017 11:40 6,2 C 92 % 1027,0 hPa 0,0 mm 1,6 km/h (1 Bft) W-NW 292 0 min 1 UV-I 204 W/m 6,4 km/h (2 Bft)
18.02.2017 11:50 6,2 C 91 % 1027,0 hPa 0,0 mm 3,2 km/h (1 Bft) W-NW 292 10 min 2 UV-I 292 W/m 8,0 km/h (2 Bft)
18.02.2017 12:00 6,2 C 91 % 1027,0 hPa 0,0 mm 1,6 km/h (1 Bft) W-NW 292 10 min 2 UV-I 330 W/m 8,0 km/h (2 Bft)
18.02.2017 12:10 6,6 C 89 % 1027,0 hPa 0,0 mm 3,2 km/h (1 Bft) W-NW 292 10 min 2 UV-I 388 W/m 8,0 km/h (2 Bft)
18.02.2017 12:20 6,5 C 88 % 1027,0 hPa 0,0 mm 3,2 km/h (1 Bft) W 270 10 min 2 UV-I 626 W/m 11,3 km/h (2 Bft)
18.02.2017 12:30 6,7 C 87 % 1026,8 hPa 0,0 mm 1,6 km/h (1 Bft) W 270 10 min 2 UV-I 348 W/m 9,7 km/h (2 Bft)
18.02.2017 12:40 7,1 C 85 % 1026,9 hPa 0,0 mm 1,6 km/h (1 Bft) W 270 10 min 2 UV-I 359 W/m 4,8 km/h (1 Bft)
18.02.2017 12:50 7,3 C 84 % 1026,8 hPa 0,0 mm 3,2 km/h (1 Bft) W 270 10 min 2 UV-I 580 W/m 8,0 km/h (2 Bft)
18.02.2017 13:00 7,3 C 82 % 1026,6 hPa 0,0 mm 0,0 km/h (0 Bft) W 270 10 min 2 UV-I 557 W/m 4,8 km/h (1 Bft)
18.02.2017 13:10 7,7 C 79 % 1026,5 hPa 0,0 mm 3,2 km/h (1 Bft) W 270 10 min 2 UV-I 515 W/m 9,7 km/h (2 Bft)
18.02.2017 13:20 8,0 C 77 % 1026,3 hPa 0,0 mm 1,6 km/h (1 Bft) W 270 10 min 2 UV-I 561 W/m 8,0 km/h (2 Bft)
18.02.2017 13:30 8,1 C 74 % 1026,2 hPa 0,0 mm 3,2 km/h (1 Bft) W 270 0 min 2 UV-I 237 W/m 11,3 km/h (2 Bft)
18.02.2017 13:40 8,1 C 76 % 1026,2 hPa 0,0 mm 3,2 km/h (1 Bft) W 270 0 min 1 UV-I 237 W/m 14,5 km/h (3 Bft)
18.02.2017 13:50 7,9 C 72 % 1026,1 hPa 0,0 mm 3,2 km/h (1 Bft) W 270 0 min 1 UV-I 121 W/m 11,3 km/h (2 Bft)
18.02.2017 14:00 7,8 C 72 % 1026,1 hPa 0,0 mm 1,6 km/h (1 Bft) W 270 0 min 1 UV-I 132 W/m 6,4 km/h (2 Bft)
18.02.2017 14:10 7,8 C 73 % 1026,0 hPa 0,0 mm 0,0 km/h (0 Bft) W 270 0 min 1 UV-I 109 W/m 8,0 km/h (2 Bft)
18.02.2017 14:20 7,8 C 74 % 1025,9 hPa 0,0 mm 0,0 km/h (0 Bft) W 270 0 min 1 UV-I 160 W/m 8,0 km/h (2 Bft)
18.02.2017 14:30 7,9 C 74 % 1025,8 hPa 0,0 mm 1,6 km/h (1 Bft) W 270 0 min 1 UV-I 153 W/m 8,0 km/h (2 Bft)
18.02.2017 14:40 7,9 C 74 % 1025,8 hPa 0,0 mm 1,6 km/h (1 Bft) W 270 0 min 1 UV-I 172 W/m 9,7 km/h (2 Bft)
18.02.2017 14:50 7,9 C 74 % 1025,8 hPa 0,0 mm 1,6 km/h (1 Bft) W 270 0 min 1 UV-I 114 W/m 8,0 km/h (2 Bft)
18.02.2017 15:00 7,9 C 74 % 1025,7 hPa 0,0 mm 0,0 km/h (0 Bft) W 270 0 min 1 UV-I 72 W/m 6,4 km/h (2 Bft)
18.02.2017 15:10 7,8 C 75 % 1025,8 hPa 0,0 mm 0,0 km/h (0 Bft) W 270 0 min 1 UV-I 111 W/m 4,8 km/h (1 Bft)
18.02.2017 15:20 7,8 C 74 % 1025,6 hPa 0,0 mm 3,2 km/h (1 Bft) W 270 10 min 1 UV-I 206 W/m 11,3 km/h (2 Bft)
18.02.2017 15:30 7,9 C 71 % 1025,7 hPa 0,0 mm 1,6 km/h (1 Bft) W 270 10 min 1 UV-I 169 W/m 9,7 km/h (2 Bft)
18.02.2017 15:40 8,0 C 70 % 1025,8 hPa 0,0 mm 3,2 km/h (1 Bft) W 270 0 min 1 UV-I 139 W/m 11,3 km/h (2 Bft)
18.02.2017 15:50 8,1 C 70 % 1025,6 hPa 0,0 mm 1,6 km/h (1 Bft) W 270 0 min 1 UV-I 127 W/m 11,3 km/h (2 Bft)
18.02.2017 16:00 8,1 C 70 % 1025,6 hPa 0,0 mm 1,6 km/h (1 Bft) W 270 0 min 1 UV-I 116 W/m 8,0 km/h (2 Bft)
18.02.2017 16:10 8,1 C 69 % 1025,5 hPa 0,0 mm 1,6 km/h (1 Bft) W 270 0 min 1 UV-I 105 W/m 8,0 km/h (2 Bft)
18.02.2017 16:20 7,9 C 69 % 1025,5 hPa 0,0 mm 0,0 km/h (0 Bft) W 270 0 min 0 UV-I 63 W/m 6,4 km/h (2 Bft)
18.02.2017 16:30 7,8 C 69 % 1025,6 hPa 0,0 mm 1,6 km/h (1 Bft) W 270 0 min 0 UV-I 63 W/m 8,0 km/h (2 Bft)
18.02.2017 16:40 7,8 C 70 % 1025,5 hPa 0,0 mm 0,0 km/h (0 Bft) W 270 0 min 0 UV-I 42 W/m 6,4 km/h (2 Bft)
18.02.2017 16:50 7,8 C 70 % 1025,4 hPa 0,0 mm 1,6 km/h (1 Bft) W 270 0 min 0 UV-I 39 W/m 8,0 km/h (2 Bft)
18.02.2017 17:00 7,7 C 70 % 1025,4 hPa 0,0 mm 0,0 km/h (0 Bft) W 270 0 min 0 UV-I 37 W/m 3,2 km/h (1 Bft)
18.02.2017 17:10 7,6 C 70 % 1025,5 hPa 0,0 mm 0,0 km/h (0 Bft) W 270 0 min 0 UV-I 25 W/m 3,2 km/h (1 Bft)
18.02.2017 17:20 7,5 C 71 % 1025,5 hPa 0,0 mm 1,6 km/h (1 Bft) W 270 0 min 0 UV-I 21 W/m 8,0 km/h (2 Bft)
18.02.2017 17:30 7,4 C 71 % 1025,4 hPa 0,0 mm 0,0 km/h (0 Bft) W 270 0 min 0 UV-I 12 W/m 6,4 km/h (2 Bft)
18.02.2017 17:40 7,3 C 71 % 1025,4 hPa 0,0 mm 0,0 km/h (0 Bft) N 0 0 min 0 UV-I 5 W/m 0,0 km/h (0 Bft)
18.02.2017 17:50 7,3 C 72 % 1025,2 hPa 0,0 mm 0,0 km/h (0 Bft) N 0 0 min 0 UV-I 0 W/m 0,0 km/h (0 Bft)
18.02.2017 18:00 7,2 C 73 % 1025,4 hPa 0,0 mm 0,0 km/h (0 Bft) N 0 0 min 0 UV-I 0 W/m 0,0 km/h (0 Bft)
18.02.2017 18:10 7,2 C 73 % 1025,4 hPa 0,0 mm 0,0 km/h (0 Bft) N 0 0 min 0 UV-I 0 W/m 0,0 km/h (0 Bft)
18.02.2017 18:20 7,1 C 74 % 1025,4 hPa 0,0 mm 0,0 km/h (0 Bft) N 0 0 min 0 UV-I 0 W/m 0,0 km/h (0 Bft)
18.02.2017 18:30 7,0 C 75 % 1025,5 hPa 0,0 mm 0,0 km/h (0 Bft) N 0 0 min 0 UV-I 0 W/m 0,0 km/h (0 Bft)
18.02.2017 18:40 6,9 C 75 % 1025,5 hPa 0,0 mm 0,0 km/h (0 Bft) N 0 0 min 0 UV-I 0 W/m 0,0 km/h (0 Bft)
18.02.2017 18:50 6,8 C 76 % 1025,4 hPa 0,0 mm 0,0 km/h (0 Bft) N 0 0 min 0 UV-I 0 W/m 0,0 km/h (0 Bft)
18.02.2017 19:00 6,7 C 76 % 1025,5 hPa 0,0 mm 0,0 km/h (0 Bft) N 0 0 min 0 UV-I 0 W/m 0,0 km/h (0 Bft)
18.02.2017 19:10 6,6 C 77 % 1025,4 hPa 0,0 mm 0,0 km/h (0 Bft) N 0 0 min 0 UV-I 0 W/m 0,0 km/h (0 Bft)
18.02.2017 19:20 6,5 C 77 % 1025,5 hPa 0,0 mm 0,0 km/h (0 Bft) N 0 0 min 0 UV-I 0 W/m 0,0 km/h (0 Bft)
18.02.2017 19:30 6,4 C 77 % 1025,4 hPa 0,0 mm 0,0 km/h (0 Bft) N 0 0 min 0 UV-I 0 W/m 0,0 km/h (0 Bft)
18.02.2017 19:40 6,3 C 77 % 1025,5 hPa 0,0 mm 0,0 km/h (0 Bft) N 0 0 min 0 UV-I 0 W/m 0,0 km/h (0 Bft)
18.02.2017 19:50 6,2 C 77 % 1025,4 hPa 0,0 mm 0,0 km/h (0 Bft) N 0 0 min 0 UV-I 0 W/m 0,0 km/h (0 Bft)
18.02.2017 20:00 6,1 C 77 % 1025,4 hPa 0,0 mm 0,0 km/h (0 Bft) N 0 0 min 0 UV-I 0 W/m 0,0 km/h (0 Bft)
18.02.2017 20:10 5,8 C 77 % 1025,2 hPa 0,0 mm 0,0 km/h (0 Bft) N 0 0 min 0 UV-I 0 W/m 0,0 km/h (0 Bft)
18.02.2017 20:20 5,6 C 77 % 1025,2 hPa 0,0 mm 0,0 km/h (0 Bft) N 0 0 min 0 UV-I 0 W/m 0,0 km/h (0 Bft)
18.02.2017 20:30 5,4 C 77 % 1025,1 hPa 0,0 mm 0,0 km/h (0 Bft) N 0 0 min 0 UV-I 0 W/m 0,0 km/h (0 Bft)
18.02.2017 20:40 5,2 C 77 % 1025,1 hPa 0,0 mm 0,0 km/h (0 Bft) N 0 0 min 0 UV-I 0 W/m 0,0 km/h (0 Bft)
18.02.2017 20:50 4,9 C 77 % 1025,0 hPa 0,0 mm 0,0 km/h (0 Bft) N 0 0 min 0 UV-I 0 W/m 0,0 km/h (0 Bft)
18.02.2017 21:00 4,7 C 77 % 1025,1 hPa 0,0 mm 0,0 km/h (0 Bft) N 0 0 min 0 UV-I 0 W/m 0,0 km/h (0 Bft)
18.02.2017 21:10 4,4 C 77 % 1025,1 hPa 0,0 mm 0,0 km/h (0 Bft) N 0 0 min 0 UV-I 0 W/m 0,0 km/h (0 Bft)
18.02.2017 21:20 4,1 C 77 % 1025,2 hPa 0,0 mm 0,0 km/h (0 Bft) N 0 0 min 0 UV-I 0 W/m 0,0 km/h (0 Bft)
18.02.2017 21:30 3,8 C 77 % 1025,1 hPa 0,0 mm 0,0 km/h (0 Bft) N 0 0 min 0 UV-I 0 W/m 0,0 km/h (0 Bft)
18.02.2017 21:40 3,5 C 77 % 1025,2 hPa 0,0 mm 0,0 km/h (0 Bft) N 0 0 min 0 UV-I 0 W/m 0,0 km/h (0 Bft)
18.02.2017 21:50 3,2 C 78 % 1025,0 hPa 0,0 mm 0,0 km/h (0 Bft) N 0 0 min 0 UV-I 0 W/m 0,0 km/h (0 Bft)
18.02.2017 22:00 3,0 C 78 % 1024,9 hPa 0,0 mm 0,0 km/h (0 Bft) N 0 0 min 0 UV-I 0 W/m 0,0 km/h (0 Bft)
18.02.2017 22:10 2,7 C 79 % 1024,9 hPa 0,0 mm 0,0 km/h (0 Bft) N 0 0 min 0 UV-I 0 W/m 0,0 km/h (0 Bft)
18.02.2017 22:20 2,5 C 79 % 1024,9 hPa 0,0 mm 0,0 km/h (0 Bft) N 0 0 min 0 UV-I 0 W/m 0,0 km/h (0 Bft)
18.02.2017 22:30 2,3 C 80 % 1024,8 hPa 0,0 mm 0,0 km/h (0 Bft) N 0 0 min 0 UV-I 0 W/m 0,0 km/h (0 Bft)
18.02.2017 22:40 2,1 C 80 % 1024,8 hPa 0,0 mm 0,0 km/h (0 Bft) N 0 0 min 0 UV-I 0 W/m 0,0 km/h (0 Bft)
18.02.2017 22:50 1,9 C 81 % 1024,7 hPa 0,0 mm 0,0 km/h (0 Bft) N 0 0 min 0 UV-I 0 W/m 0,0 km/h (0 Bft)
18.02.2017 23:00 1,7 C 81 % 1024,8 hPa 0,0 mm 0,0 km/h (0 Bft) N 0 0 min 0 UV-I 0 W/m 0,0 km/h (0 Bft)
18.02.2017 23:10 1,6 C 82 % 1024,5 hPa 0,0 mm 0,0 km/h (0 Bft) W 270 0 min 0 UV-I 0 W/m 1,6 km/h (1 Bft)
18.02.2017 23:20 1,4 C 83 % 1024,4 hPa 0,0 mm 0,0 km/h (0 Bft) N 0 0 min 0 UV-I 0 W/m 0,0 km/h (0 Bft)
18.02.2017 23:30 1,3 C 83 % 1024,4 hPa 0,0 mm 0,0 km/h (0 Bft) N 0 0 min 0 UV-I 0 W/m 0,0 km/h (0 Bft)
18.02.2017 23:40 1,3 C 83 % 1024,5 hPa 0,0 mm 0,0 km/h (0 Bft) N 0 0 min 0 UV-I 0 W/m 0,0 km/h (0 Bft)
18.02.2017 23:50 1,3 C 84 % 1024,4 hPa 0,0 mm 0,0 km/h (0 Bft) N 0 0 min 0 UV-I 0 W/m 0,0 km/h (0 Bft)
_ Min-Zeit 23:50 16:10 23:20 - 00:30 - - - - - 01:20
Minimum _ 1,2 C 69 % 1024,4 hPa - 0,0 km/h (0 Bft) - - - - - 0,0 km/h (0 Bft)
_ Max-Zeit 13:20 01:10 10:20 00:00 00:00 - - 11:10 12:20 12:20 13:40
Maximum _ 8,2 C 98 % 1027,0 hPa 0,0 mm 3,2 km/h
W-NW (1 Bft)
- - 10 min 2 UV-I 626 W/m 14,5 km/h
W (3 Bft)
Durchschnitt _ 5,5 C 85 % 1025,9 hPa #0,0 mm 0,5 km/h (0 Bft) W - #2:30 h 1 UV-I 165 W/m 3,1 km/h (1 Bft)